Terminal Aerodrome Forecast
Issued by NWS

Home | Current Version | Previous Version | Text Only | Print | Product List | Glossary On
Versions: 1 2 3 4 5 6 7 8 9 10 11 12 13 14 15 16 17 18 19
000
FTUS46 KMFR 040227 AAA
TAFRBG
TAF AMD
KRBG 040227Z 0402/0424 VRB03KT P6SM OVC008
     FM041100 18010KT P6SM -RA OVC015
     FM042100 35010KT P6SM -SHRA OVC020=

USA.gov is the U.S. government's official web portal to all federal, state and local government web resources and services.